This is the latest recevied weather packets stored in our database for station/object KC3BBT-13. If no packets are shown the sender has not sent any weather packets the latest 10 day(s).
| Time | Temp. | Humidity | Pressure | Rain* | Wind** | Luminosity | Snow |
|---|---|---|---|---|---|---|---|
| 1777940343 | 22.22° C | 41% | 1011 hPa | 0 mm | - | - | - |
| 1777940026 | 22.22° C | 41% | 1011 hPa | 0 mm | - | - | - |
| 1777939286 | 22.22° C | 41% | 1011 hPa | 0 mm | - | - | - |
| 1777938634 | 22.78° C | 43% | 1011 hPa | 0 mm | - | - | - |
| 1777938527 | 22.78° C | 43% | 1011 hPa | 0 mm | - | - | - |
| 1777937767 | 22.78° C | 38% | 1010.9 hPa | 0 mm | - | - | - |
| 1777936935 | 22.78° C | 38% | 1010.8 hPa | 0 mm | - | - | - |
| 1777936181 | 23.33° C | 37% | 1010.8 hPa | 0 mm | - | - | - |
| 1777935631 | 23.33° C | 37% | 1010.8 hPa | 0 mm | - | - | - |
| 1777935397 | 23.33° C | 37% | 1010.8 hPa | 0 mm | - | - | - |
| 1777934506 | 23.33° C | 36% | 1010.8 hPa | 0 mm | - | - | - |
| 1777933670 | 23.33° C | 36% | 1010.9 hPa | 0 mm | - | - | - |
| 1777932821 | 23.33° C | 35% | 1010.8 hPa | 0 mm | - | - | - |
| 1777931926 | 23.33° C | 36% | 1010.8 hPa | 0 mm | - | - | - |
| 1777931081 | 24.44° C | 33% | 1010.8 hPa | 0 mm | - | - | - |
| 1777930339 | 25° C | 32% | 1010.8 hPa | 0 mm | - | - | - |
| 1777929471 | 24.44° C | 32% | 1010.8 hPa | 0 mm | - | - | - |
| 1777928686 | 25° C | 31% | 1010.8 hPa | 0 mm | - | - | - |
| 1777927966 | 10° C | 57% | 1016.4 hPa | 0 mm | - | - | - |
| 1777927161 | 10° C | 57% | 1016.4 hPa | 0 mm | - | - | - |
| 1777926301 | 10° C | 57% | 1016.4 hPa | 0 mm | - | - | - |
| 1777925466 | 10° C | 57% | 1016.4 hPa | 0 mm | - | - | - |
| 1777925269 | 10° C | 57% | 1016.4 hPa | 0 mm | - | - | - |
| 1777924654 | 10° C | 57% | 1016.4 hPa | 0 mm | - | - | - |
| 1777923876 | 10° C | 57% | 1016.4 hPa | 0 mm | - | - | - |
* Rain latest hour (hover to see other rain measurements)
** Current wind speed in m/s (hover to see current wind gust speed)